sensor_id;sensor_type;location;lat;lon;timestamp;pressure;altitude;pressure_sealevel;temperature;humidity
84382;BME280;74572;51.834;5.820;2024-02-28T00:02:06;102095.34;;;-0.28;89.09
84382;BME280;74572;51.834;5.820;2024-02-28T00:04:31;102099.81;;;-0.32;89.28
84382;BME280;74572;51.834;5.820;2024-02-28T00:06:57;102103.75;;;-0.27;89.17
84382;BME280;74572;51.834;5.820;2024-02-28T00:09:22;102092.88;;;-0.21;89.46
84382;BME280;74572;51.834;5.820;2024-02-28T00:11:48;102073.38;;;-0.16;89.13
84382;BME280;74572;51.834;5.820;2024-02-28T00:14:13;102074.97;;;-0.10;89.37
84382;BME280;74572;51.834;5.820;2024-02-28T00:16:45;102062.66;;;-0.01;89.29
84382;BME280;74572;51.834;5.820;2024-02-28T00:19:12;102070.66;;;0.04;89.22
84382;BME280;74572;51.834;5.820;2024-02-28T00:21:38;102075.31;;;0.08;89.25
84382;BME280;74572;51.834;5.820;2024-02-28T00:24:05;102066.38;;;0.10;88.71
84382;BME280;74572;51.834;5.820;2024-02-28T00:26:31;102084.94;;;0.19;89.03
84382;BME280;74572;51.834;5.820;2024-02-28T00:28:56;102089.19;;;0.20;88.90
84382;BME280;74572;51.834;5.820;2024-02-28T00:31:22;102078.16;;;0.18;88.88
84382;BME280;74572;51.834;5.820;2024-02-28T00:33:48;102076.31;;;0.24;89.05
84382;BME280;74572;51.834;5.820;2024-02-28T00:36:13;102084.72;;;0.24;89.34
84382;BME280;74572;51.834;5.820;2024-02-28T00:38:40;102078.13;;;0.25;88.74
84382;BME280;74572;51.834;5.820;2024-02-28T00:41:06;102088.47;;;0.21;88.73
84382;BME280;74572;51.834;5.820;2024-02-28T00:43:32;102084.59;;;0.16;89.15
84382;BME280;74572;51.834;5.820;2024-02-28T00:45:57;102077.09;;;0.09;89.32
84382;BME280;74572;51.834;5.820;2024-02-28T00:48:24;102068.50;;;0.07;89.49
84382;BME280;74572;51.834;5.820;2024-02-28T00:50:49;102076.56;;;0.04;89.31
84382;BME280;74572;51.834;5.820;2024-02-28T00:53:15;102089.06;;;0.04;89.27
84382;BME280;74572;51.834;5.820;2024-02-28T00:55:40;102087.44;;;0.05;89.29
84382;BME280;74572;51.834;5.820;2024-02-28T00:58:06;102086.38;;;0.03;89.15
84382;BME280;74572;51.834;5.820;2024-02-28T01:00:31;102081.75;;;-0.02;89.35
84382;BME280;74572;51.834;5.820;2024-02-28T01:02:56;102084.06;;;0.04;89.27
84382;BME280;74572;51.834;5.820;2024-02-28T01:05:22;102089.06;;;0.04;89.48
84382;BME280;74572;51.834;5.820;2024-02-28T01:07:47;102085.13;;;0.06;89.53
84382;BME280;74572;51.834;5.820;2024-02-28T01:10:13;102079.94;;;0.05;89.31
84382;BME280;74572;51.834;5.820;2024-02-28T01:12:38;102087.97;;;0.09;89.57
84382;BME280;74572;51.834;5.820;2024-02-28T01:15:06;102073.50;;;0.07;89.43
84382;BME280;74572;51.834;5.820;2024-02-28T01:17:31;102084.59;;;0.09;89.43
84382;BME280;74572;51.834;5.820;2024-02-28T01:19:57;102081.00;;;0.14;89.51
84382;BME280;74572;51.834;5.820;2024-02-28T01:22:22;102067.97;;;0.16;89.70
84382;BME280;74572;51.834;5.820;2024-02-28T01:24:48;102074.03;;;0.18;89.07
84382;BME280;74572;51.834;5.820;2024-02-28T01:27:13;102079.38;;;0.21;89.82
84382;BME280;74572;51.834;5.820;2024-02-28T01:29:39;102069.53;;;0.23;89.33
84382;BME280;74572;51.834;5.820;2024-02-28T01:32:04;102069.34;;;0.21;89.55
84382;BME280;74572;51.834;5.820;2024-02-28T01:34:30;102068.81;;;0.24;89.23
84382;BME280;74572;51.834;5.820;2024-02-28T01:36:55;102069.53;;;0.23;89.17
84382;BME280;74572;51.834;5.820;2024-02-28T01:39:21;102068.47;;;0.21;89.45
84382;BME280;74572;51.834;5.820;2024-02-28T01:41:55;102076.69;;;0.20;89.30
84382;BME280;74572;51.834;5.820;2024-02-28T01:44:22;102078.47;;;0.21;89.54
84382;BME280;74572;51.834;5.820;2024-02-28T01:46:47;102077.25;;;0.17;90.12
84382;BME280;74572;51.834;5.820;2024-02-28T01:49:13;102084.06;;;0.18;89.78
84382;BME280;74572;51.834;5.820;2024-02-28T01:51:41;102079.94;;;0.19;89.33
84382;BME280;74572;51.834;5.820;2024-02-28T01:54:07;102084.19;;;0.20;89.82
84382;BME280;74572;51.834;5.820;2024-02-28T01:56:34;102087.75;;;0.22;89.68
84382;BME280;74572;51.834;5.820;2024-02-28T01:59:00;102092.59;;;0.20;89.86
84382;BME280;74572;51.834;5.820;2024-02-28T02:01:27;102089.94;;;0.19;89.74
84382;BME280;74572;51.834;5.820;2024-02-28T02:03:54;102086.69;;;0.20;89.92
84382;BME280;74572;51.834;5.820;2024-02-28T02:06:23;102093.50;;;0.21;89.55
84382;BME280;74572;51.834;5.820;2024-02-28T02:08:48;102089.94;;;0.19;89.72
84382;BME280;74572;51.834;5.820;2024-02-28T02:11:15;102090.81;;;0.19;89.66
84382;BME280;74572;51.834;5.820;2024-02-28T02:13:48;102096.69;;;0.20;89.90
84382;BME280;74572;51.834;5.820;2024-02-28T02:16:15;102084.94;;;0.19;89.61
84382;BME280;74572;51.834;5.820;2024-02-28T02:18:40;102094.94;;;0.19;89.52
84382;BME280;74572;51.834;5.820;2024-02-28T02:21:06;102089.06;;;0.18;89.72
84382;BME280;74572;51.834;5.820;2024-02-28T02:23:32;102082.25;;;0.17;90.04
84382;BME280;74572;51.834;5.820;2024-02-28T02:25:57;102081.72;;;0.13;89.51
84382;BME280;74572;51.834;5.820;2024-02-28T02:28:23;102078.16;;;0.11;89.71
84382;BME280;74572;51.834;5.820;2024-02-28T02:30:48;102093.53;;;0.14;90.60
84382;BME280;74572;51.834;5.820;2024-02-28T02:33:14;102083.50;;;0.07;89.97
84382;BME280;74572;51.834;5.820;2024-02-28T02:35:39;102086.72;;;0.06;89.99
84382;BME280;74572;51.834;5.820;2024-02-28T02:38:05;102087.44;;;0.05;89.71
84382;BME280;74572;51.834;5.820;2024-02-28T02:40:30;102086.19;;;0.01;90.32
84382;BME280;74572;51.834;5.820;2024-02-28T02:42:56;102083.91;;;-0.05;89.79
84382;BME280;74572;51.834;5.820;2024-02-28T02:45:21;102074.44;;;-0.07;89.94
84382;BME280;74572;51.834;5.820;2024-02-28T02:47:47;102082.66;;;-0.08;90.55
84382;BME280;74572;51.834;5.820;2024-02-28T02:50:12;102091.41;;;-0.12;90.23
84382;BME280;74572;51.834;5.820;2024-02-28T02:52:37;102088.53;;;-0.15;90.52
84382;BME280;74572;51.834;5.820;2024-02-28T02:55:03;102093.38;;;-0.16;90.67
84382;BME280;74572;51.834;5.820;2024-02-28T02:57:29;102089.97;;;-0.17;90.38
84382;BME280;74572;51.834;5.820;2024-02-28T02:59:57;102093.91;;;-0.19;90.29
84382;BME280;74572;51.834;5.820;2024-02-28T03:02:23;102091.59;;;-0.24;90.66
84382;BME280;74572;51.834;5.820;2024-02-28T03:04:48;102093.22;;;-0.25;90.18
84382;BME280;74572;51.834;5.820;2024-02-28T03:07:14;102102.84;;;-0.28;90.20
84382;BME280;74572;51.834;5.820;2024-02-28T03:09:39;102093.91;;;-0.33;90.63
84382;BME280;74572;51.834;5.820;2024-02-28T03:12:05;102098.56;;;-0.36;90.79
84382;BME280;74572;51.834;5.820;2024-02-28T03:14:32;102103.56;;;-0.36;90.39
84382;BME280;74572;51.834;5.820;2024-02-28T03:16:57;102091.44;;;-0.40;90.10
84382;BME280;74572;51.834;5.820;2024-02-28T03:19:23;102088.56;;;-0.43;90.49
84382;BME280;74572;51.834;5.820;2024-02-28T03:21:49;102090.72;;;-0.46;90.30
84382;BME280;74572;51.834;5.820;2024-02-28T03:24:14;102092.66;;;-0.51;90.26
84382;BME280;74572;51.834;5.820;2024-02-28T03:26:42;102084.81;;;-0.54;90.30
84382;BME280;74572;51.834;5.820;2024-02-28T03:29:10;102089.97;;;-0.52;90.90
84382;BME280;74572;51.834;5.820;2024-02-28T03:31:36;102092.84;;;-0.49;91.00
84382;BME280;74572;51.834;5.820;2024-02-28T03:34:02;102093.91;;;-0.47;90.83
84382;BME280;74572;51.834;5.820;2024-02-28T03:36:28;102086.06;;;-0.43;90.47
84382;BME280;74572;51.834;5.820;2024-02-28T03:38:54;102090.53;;;-0.41;90.62
84382;BME280;74572;51.834;5.820;2024-02-28T03:41:20;102090.53;;;-0.41;90.33
84382;BME280;74572;51.834;5.820;2024-02-28T03:43:49;102086.97;;;-0.43;90.54
84382;BME280;74572;51.834;5.820;2024-02-28T03:46:14;102077.50;;;-0.45;90.37
84382;BME280;74572;51.834;5.820;2024-02-28T03:48:40;102097.66;;;-0.37;90.74
84382;BME280;74572;51.834;5.820;2024-02-28T03:51:05;102099.25;;;-0.37;90.90
84382;BME280;74572;51.834;5.820;2024-02-28T03:53:31;102086.44;;;-0.40;90.55
84382;BME280;74572;51.834;5.820;2024-02-28T03:55:57;102088.38;;;-0.38;90.74
84382;BME280;74572;51.834;5.820;2024-02-28T03:58:22;102084.13;;;-0.39;90.66
84382;BME280;74572;51.834;5.820;2024-02-28T04:00:48;102085.88;;;-0.38;90.29
84382;BME280;74572;51.834;5.820;2024-02-28T04:03:14;102078.94;;;-0.40;90.21
84382;BME280;74572;51.834;5.820;2024-02-28T04:05:40;102080.38;;;-0.42;90.64
84382;BME280;74572;51.834;5.820;2024-02-28T04:08:06;102075.00;;;-0.45;90.44
84382;BME280;74572;51.834;5.820;2024-02-28T04:10:31;102085.19;;;-0.44;90.32
84382;BME280;74572;51.834;5.820;2024-02-28T04:12:57;102086.59;;;-0.46;90.57
84382;BME280;74572;51.834;5.820;2024-02-28T04:15:22;102093.03;;;-0.48;90.12
84382;BME280;74572;51.834;5.820;2024-02-28T04:17:51;102091.41;;;-0.47;91.06
84382;BME280;74572;51.834;5.820;2024-02-28T04:20:16;102094.63;;;-0.48;90.32
84382;BME280;74572;51.834;5.820;2024-02-28T04:22:42;102096.06;;;-0.50;90.61
84382;BME280;74572;51.834;5.820;2024-02-28T04:25:09;102104.09;;;-0.53;90.54
84382;BME280;74572;51.834;5.820;2024-02-28T04:27:35;102100.88;;;-0.52;90.63
84382;BME280;74572;51.834;5.820;2024-02-28T04:30:01;102109.97;;;-0.52;90.64
84382;BME280;74572;51.834;5.820;2024-02-28T04:32:29;102115.69;;;-0.53;90.27
84382;BME280;74572;51.834;5.820;2024-02-28T04:34:55;102117.66;;;-0.51;90.84
84382;BME280;74572;51.834;5.820;2024-02-28T04:37:21;102116.41;;;-0.47;90.79
84382;BME280;74572;51.834;5.820;2024-02-28T04:39:46;102106.25;;;-0.49;90.61
84382;BME280;74572;51.834;5.820;2024-02-28T04:42:15;102113.03;;;-0.48;91.23
84382;BME280;74572;51.834;5.820;2024-02-28T04:44:41;102115.69;;;-0.46;90.67
84382;BME280;74572;51.834;5.820;2024-02-28T04:47:07;102115.69;;;-0.46;90.82
84382;BME280;74572;51.834;5.820;2024-02-28T04:49:32;102123.19;;;-0.46;90.89
84382;BME280;74572;51.834;5.820;2024-02-28T04:51:58;102126.59;;;-0.46;90.68
84382;BME280;74572;51.834;5.820;2024-02-28T04:54:23;102116.78;;;-0.44;91.27
84382;BME280;74572;51.834;5.820;2024-02-28T04:56:49;102120.69;;;-0.46;90.66
84382;BME280;74572;51.834;5.820;2024-02-28T04:59:16;102115.69;;;-0.46;90.94
84382;BME280;74572;51.834;5.820;2024-02-28T05:01:41;102116.06;;;-0.43;90.87
84382;BME280;74572;51.834;5.820;2024-02-28T05:04:08;102118.56;;;-0.43;90.62
84382;BME280;74572;51.834;5.820;2024-02-28T05:06:34;102115.00;;;-0.45;90.42
84382;BME280;74572;51.834;5.820;2024-02-28T05:09:00;102116.06;;;-0.43;91.22
84382;BME280;74572;51.834;5.820;2024-02-28T05:11:26;102112.69;;;-0.44;91.25
84382;BME280;74572;51.834;5.820;2024-02-28T05:13:51;102112.50;;;-0.45;91.09
84382;BME280;74572;51.834;5.820;2024-02-28T05:16:17;102114.28;;;-0.44;91.17
84382;BME280;74572;51.834;5.820;2024-02-28T05:18:45;102130.88;;;-0.45;90.88
84382;BME280;74572;51.834;5.820;2024-02-28T05:21:11;102139.28;;;-0.44;91.03
84382;BME280;74572;51.834;5.820;2024-02-28T05:23:37;102143.38;;;-0.45;91.35
84382;BME280;74572;51.834;5.820;2024-02-28T05:26:03;102140.34;;;-0.42;91.48
84382;BME280;74572;51.834;5.820;2024-02-28T05:28:35;102137.84;;;-0.42;91.63
84382;BME280;74572;51.834;5.820;2024-02-28T05:31:02;102136.44;;;-0.40;91.50
84382;BME280;74572;51.834;5.820;2024-02-28T05:33:45;102144.63;;;-0.41;91.51
84382;BME280;74572;51.834;5.820;2024-02-28T05:36:10;102134.66;;;-0.41;90.69
84382;BME280;74572;51.834;5.820;2024-02-28T05:38:36;102141.06;;;-0.43;91.17
84382;BME280;74572;51.834;5.820;2024-02-28T05:41:02;102136.06;;;-0.43;91.52
84382;BME280;74572;51.834;5.820;2024-02-28T05:43:27;102142.84;;;-0.42;91.63
84382;BME280;74572;51.834;5.820;2024-02-28T05:45:53;102146.44;;;-0.40;91.51
84382;BME280;74572;51.834;5.820;2024-02-28T05:48:18;102153.94;;;-0.40;91.41
84382;BME280;74572;51.834;5.820;2024-02-28T05:50:44;102153.22;;;-0.39;91.46
84382;BME280;74572;51.834;5.820;2024-02-28T05:53:09;102147.13;;;-0.41;91.28
84382;BME280;74572;51.834;5.820;2024-02-28T05:55:35;102146.44;;;-0.40;91.67
84382;BME280;74572;51.834;5.820;2024-02-28T05:58:00;102147.31;;;-0.40;91.64
84382;BME280;74572;51.834;5.820;2024-02-28T06:00:29;102145.53;;;-0.41;91.58
84382;BME280;74572;51.834;5.820;2024-02-28T06:02:54;102153.38;;;-0.38;91.50
84382;BME280;74572;51.834;5.820;2024-02-28T06:05:20;102151.03;;;-0.36;91.81
84382;BME280;74572;51.834;5.820;2024-02-28T06:07:45;102147.47;;;-0.38;91.66
84382;BME280;74572;51.834;5.820;2024-02-28T06:10:11;102146.06;;;-0.36;91.79
84382;BME280;74572;51.834;5.820;2024-02-28T06:12:37;102146.63;;;-0.39;91.99
84382;BME280;74572;51.834;5.820;2024-02-28T06:15:03;102149.97;;;-0.38;91.55
84382;BME280;74572;51.834;5.820;2024-02-28T06:17:29;102155.72;;;-0.39;91.39
84382;BME280;74572;51.834;5.820;2024-02-28T06:19:55;102159.13;;;-0.39;91.81
84382;BME280;74572;51.834;5.820;2024-02-28T06:22:20;102162.31;;;-0.40;91.50
84382;BME280;74572;51.834;5.820;2024-02-28T06:24:46;102161.59;;;-0.39;91.85
84382;BME280;74572;51.834;5.820;2024-02-28T06:27:11;102168.53;;;-0.36;91.42
84382;BME280;74572;51.834;5.820;2024-02-28T06:29:41;102166.94;;;-0.36;91.73
84382;BME280;74572;51.834;5.820;2024-02-28T06:32:07;102160.53;;;-0.33;91.40
84382;BME280;74572;51.834;5.820;2024-02-28T06:34:33;102166.97;;;-0.28;91.66
84382;BME280;74572;51.834;5.820;2024-02-28T06:36:58;102171.78;;;-0.23;91.45
84382;BME280;74572;51.834;5.820;2024-02-28T06:39:24;102169.47;;;-0.21;91.60
84382;BME280;74572;51.834;5.820;2024-02-28T06:41:49;102187.84;;;-0.14;90.88
84382;BME280;74572;51.834;5.820;2024-02-28T06:44:17;102177.50;;;-0.10;91.47
84382;BME280;74572;51.834;5.820;2024-02-28T06:46:43;102187.88;;;-0.07;91.15
84382;BME280;74572;51.834;5.820;2024-02-28T06:49:08;102193.06;;;-0.05;91.36
84382;BME280;74572;51.834;5.820;2024-02-28T06:51:34;102190.72;;;0.04;91.36
84382;BME280;74572;51.834;5.820;2024-02-28T06:53:59;102189.47;;;0.07;91.04
84382;BME280;74572;51.834;5.820;2024-02-28T06:56:24;102188.25;;;0.18;90.72
84382;BME280;74572;51.834;5.820;2024-02-28T06:58:50;102193.22;;;0.32;90.78
84382;BME280;74572;51.834;5.820;2024-02-28T07:01:15;102190.50;;;0.45;90.53
84382;BME280;74572;51.834;5.820;2024-02-28T07:03:42;102189.56;;;0.58;90.15
84382;BME280;74572;51.834;5.820;2024-02-28T07:06:07;102191.19;;;0.65;90.41
84382;BME280;74572;51.834;5.820;2024-02-28T07:08:33;102194.03;;;0.75;90.11
84382;BME280;74572;51.834;5.820;2024-02-28T07:10:58;102201.72;;;0.77;89.82
84382;BME280;74572;51.834;5.820;2024-02-28T07:13:23;102201.69;;;0.84;89.96
84382;BME280;74572;51.834;5.820;2024-02-28T07:15:49;102205.25;;;0.93;89.87
84382;BME280;74572;51.834;5.820;2024-02-28T07:18:14;102210.59;;;0.96;90.03
84382;BME280;74572;51.834;5.820;2024-02-28T07:20:40;102209.66;;;1.02;89.49
84382;BME280;74572;51.834;5.820;2024-02-28T07:23:05;102216.44;;;1.11;89.84
84382;BME280;74572;51.834;5.820;2024-02-28T07:25:31;102217.66;;;1.21;89.50
84382;BME280;74572;51.834;5.820;2024-02-28T07:27:58;102223.00;;;1.24;89.14
84382;BME280;74572;51.834;5.820;2024-02-28T07:30:28;102231.25;;;1.23;89.26
84382;BME280;74572;51.834;5.820;2024-02-28T07:32:53;102227.31;;;1.25;88.90
84382;BME280;74572;51.834;5.820;2024-02-28T07:35:19;102221.38;;;1.32;89.21
84382;BME280;74572;51.834;5.820;2024-02-28T07:37:46;102225.25;;;1.44;88.86
84382;BME280;74572;51.834;5.820;2024-02-28T07:40:12;102230.69;;;1.63;88.67
84382;BME280;74572;51.834;5.820;2024-02-28T07:42:37;102229.94;;;1.94;87.87
84382;BME280;74572;51.834;5.820;2024-02-28T07:45:03;102222.88;;;2.28;86.64
84382;BME280;74572;51.834;5.820;2024-02-28T07:47:28;102228.13;;;2.61;86.71
84382;BME280;74572;51.834;5.820;2024-02-28T07:49:54;102225.00;;;2.87;85.32
84382;BME280;74572;51.834;5.820;2024-02-28T07:52:20;102232.03;;;2.98;85.11
84382;BME280;74572;51.834;5.820;2024-02-28T07:54:45;102233.81;;;2.99;84.98
84382;BME280;74572;51.834;5.820;2024-02-28T07:57:11;102238.19;;;2.93;85.52
84382;BME280;74572;51.834;5.820;2024-02-28T07:59:41;102241.25;;;2.90;86.15
84382;BME280;74572;51.834;5.820;2024-02-28T08:02:07;102244.81;;;2.92;85.66
84382;BME280;74572;51.834;5.820;2024-02-28T08:04:33;102247.94;;;3.05;85.83
84382;BME280;74572;51.834;5.820;2024-02-28T08:06:59;102253.44;;;3.26;85.71
84382;BME280;74572;51.834;5.820;2024-02-28T08:09:25;102251.06;;;3.43;84.24
84382;BME280;74572;51.834;5.820;2024-02-28T08:11:50;102253.41;;;3.81;84.17
84382;BME280;74572;51.834;5.820;2024-02-28T08:14:16;102253.34;;;4.22;82.68
84382;BME280;74572;51.834;5.820;2024-02-28T08:16:42;102259.19;;;4.46;81.25
84382;BME280;74572;51.834;5.820;2024-02-28T08:19:07;102268.97;;;4.43;82.46
84382;BME280;74572;51.834;5.820;2024-02-28T08:21:33;102260.84;;;4.13;81.80
84382;BME280;74572;51.834;5.820;2024-02-28T08:23:58;102269.44;;;3.91;82.02
84382;BME280;74572;51.834;5.820;2024-02-28T08:26:24;102272.09;;;3.68;82.98
84382;BME280;74572;51.834;5.820;2024-02-28T08:28:50;102274.59;;;3.68;83.64
84382;BME280;74572;51.834;5.820;2024-02-28T08:31:16;102273.72;;;3.83;82.96
84382;BME280;74572;51.834;5.820;2024-02-28T08:33:41;102270.44;;;4.08;82.54
84382;BME280;74572;51.834;5.820;2024-02-28T08:36:06;102265.84;;;4.88;81.03
84382;BME280;74572;51.834;5.820;2024-02-28T08:38:32;102268.84;;;5.70;77.17
84382;BME280;74572;51.834;5.820;2024-02-28T08:40:57;102273.75;;;6.39;77.67
84382;BME280;74572;51.834;5.820;2024-02-28T08:43:23;102262.44;;;7.36;77.17
84382;BME280;74572;51.834;5.820;2024-02-28T08:45:48;102262.72;;;7.39;75.13
84382;BME280;74572;51.834;5.820;2024-02-28T08:48:16;102274.56;;;6.56;75.95
84382;BME280;74572;51.834;5.820;2024-02-28T08:50:42;102278.06;;;5.61;77.76
84382;BME280;74572;51.834;5.820;2024-02-28T08:53:07;102284.13;;;5.11;80.27
84382;BME280;74572;51.834;5.820;2024-02-28T08:55:33;102286.97;;;5.22;81.00
84382;BME280;74572;51.834;5.820;2024-02-28T08:57:58;102287.56;;;5.72;79.24
84382;BME280;74572;51.834;5.820;2024-02-28T09:00:24;102281.03;;;5.65;78.66
84382;BME280;74572;51.834;5.820;2024-02-28T09:02:50;102275.09;;;5.65;78.38
84382;BME280;74572;51.834;5.820;2024-02-28T09:05:15;102275.38;;;5.59;78.58
84382;BME280;74572;51.834;5.820;2024-02-28T09:07:41;102278.91;;;6.04;77.31
84382;BME280;74572;51.834;5.820;2024-02-28T09:10:07;102275.75;;;6.24;75.34
84382;BME280;74572;51.834;5.820;2024-02-28T09:12:33;102267.78;;;6.47;76.52
84382;BME280;74572;51.834;5.820;2024-02-28T09:14:58;102276.13;;;6.46;76.86
84382;BME280;74572;51.834;5.820;2024-02-28T09:17:25;102272.63;;;6.27;75.31
84382;BME280;74572;51.834;5.820;2024-02-28T09:19:50;102274.03;;;6.42;76.28
84382;BME280;74572;51.834;5.820;2024-02-28T09:22:16;102270.75;;;6.79;76.16
84382;BME280;74572;51.834;5.820;2024-02-28T09:24:42;102277.63;;;6.99;74.58
84382;BME280;74572;51.834;5.820;2024-02-28T09:27:09;102271.94;;;6.46;75.74
84382;BME280;74572;51.834;5.820;2024-02-28T09:29:35;102276.78;;;6.26;76.99
84382;BME280;74572;51.834;5.820;2024-02-28T09:32:00;102270.59;;;6.77;76.06
84382;BME280;74572;51.834;5.820;2024-02-28T09:34:26;102269.00;;;6.97;74.78
84382;BME280;74572;51.834;5.820;2024-02-28T09:36:52;102273.41;;;6.80;72.98
84382;BME280;74572;51.834;5.820;2024-02-28T09:39:17;102267.13;;;6.85;74.87
84382;BME280;74572;51.834;5.820;2024-02-28T09:41:43;102269.00;;;6.97;75.43
84382;BME280;74572;51.834;5.820;2024-02-28T09:44:08;102265.72;;;6.98;74.73
84382;BME280;74572;51.834;5.820;2024-02-28T09:46:34;102261.28;;;7.14;74.39
84382;BME280;74572;51.834;5.820;2024-02-28T09:49:04;102261.13;;;7.12;73.61
84382;BME280;74572;51.834;5.820;2024-02-28T09:51:34;102258.44;;;6.73;74.19
84382;BME280;74572;51.834;5.820;2024-02-28T09:54:05;102258.63;;;6.66;75.29
84382;BME280;74572;51.834;5.820;2024-02-28T09:56:31;102265.06;;;6.81;76.05
84382;BME280;74572;51.834;5.820;2024-02-28T09:58:57;102266.72;;;6.81;74.32
84382;BME280;74572;51.834;5.820;2024-02-28T10:01:23;102268.09;;;6.96;74.78
84382;BME280;74572;51.834;5.820;2024-02-28T10:03:51;102278.63;;;7.28;75.05
84382;BME280;74572;51.834;5.820;2024-02-28T10:06:20;102271.53;;;7.53;74.07
84382;BME280;74572;51.834;5.820;2024-02-28T10:08:45;102277.91;;;7.39;74.47
84382;BME280;74572;51.834;5.820;2024-02-28T10:11:21;102264.91;;;7.07;74.81
84382;BME280;74572;51.834;5.820;2024-02-28T10:13:50;102262.34;;;6.61;75.24
84382;BME280;74572;51.834;5.820;2024-02-28T10:16:15;102280.13;;;6.52;75.61
84382;BME280;74572;51.834;5.820;2024-02-28T10:18:45;102284.19;;;6.69;75.97
84382;BME280;74572;51.834;5.820;2024-02-28T10:21:11;102279.13;;;6.69;75.96
84382;BME280;74572;51.834;5.820;2024-02-28T10:23:41;102281.19;;;6.73;75.85
84382;BME280;74572;51.834;5.820;2024-02-28T10:26:12;102276.41;;;7.04;75.98
84382;BME280;74572;51.834;5.820;2024-02-28T10:28:37;102276.75;;;7.54;75.93
84382;BME280;74572;51.834;5.820;2024-02-28T10:31:04;102270.66;;;8.00;74.42
84382;BME280;74572;51.834;5.820;2024-02-28T10:33:30;102279.19;;;7.82;73.87
84382;BME280;74572;51.834;5.820;2024-02-28T10:35:58;102279.41;;;7.37;74.57
84382;BME280;74572;51.834;5.820;2024-02-28T10:38:25;102283.81;;;7.11;76.35
84382;BME280;74572;51.834;5.820;2024-02-28T10:40:55;102276.00;;;7.18;76.62
84382;BME280;74572;51.834;5.820;2024-02-28T10:43:22;102266.63;;;7.17;75.92
84382;BME280;74572;51.834;5.820;2024-02-28T10:45:49;102264.66;;;7.23;76.12
84382;BME280;74572;51.834;5.820;2024-02-28T10:48:16;102261.06;;;7.58;75.77
84382;BME280;74572;51.834;5.820;2024-02-28T10:50:44;102262.88;;;7.88;75.20
84382;BME280;74572;51.834;5.820;2024-02-28T10:53:14;102262.09;;;8.28;74.42
84382;BME280;74572;51.834;5.820;2024-02-28T10:55:41;102261.97;;;8.66;73.19
84382;BME280;74572;51.834;5.820;2024-02-28T10:58:07;102250.94;;;8.86;73.13
84382;BME280;74572;51.834;5.820;2024-02-28T11:00:36;102254.91;;;8.82;72.96
84382;BME280;74572;51.834;5.820;2024-02-28T11:03:04;102264.00;;;8.70;73.31
84382;BME280;74572;51.834;5.820;2024-02-28T11:05:40;102258.28;;;8.52;73.58
84382;BME280;74572;51.834;5.820;2024-02-28T11:08:19;102263.84;;;8.38;74.02
84382;BME280;74572;51.834;5.820;2024-02-28T11:10:45;102260.13;;;8.35;74.20
84382;BME280;74572;51.834;5.820;2024-02-28T11:13:27;102257.78;;;8.46;74.36
84382;BME280;74572;51.834;5.820;2024-02-28T11:15:54;102253.69;;;8.48;74.19
84382;BME280;74572;51.834;5.820;2024-02-28T11:18:22;102251.28;;;8.50;73.48
84382;BME280;74572;51.834;5.820;2024-02-28T11:20:48;102251.16;;;8.48;74.04
84382;BME280;74572;51.834;5.820;2024-02-28T11:23:17;102248.28;;;8.74;73.83
84382;BME280;74572;51.834;5.820;2024-02-28T11:25:43;102239.41;;;8.79;72.65
84382;BME280;74572;51.834;5.820;2024-02-28T11:28:09;102237.63;;;8.68;72.19
84382;BME280;74572;51.834;5.820;2024-02-28T11:30:34;102235.34;;;8.61;72.43
84382;BME280;74572;51.834;5.820;2024-02-28T11:33:00;102234.81;;;8.55;73.50
84382;BME280;74572;51.834;5.820;2024-02-28T11:35:28;102236.72;;;8.68;72.55
84382;BME280;74572;51.834;5.820;2024-02-28T11:37:54;102241.66;;;8.66;72.99
84382;BME280;74572;51.834;5.820;2024-02-28T11:40:25;102242.94;;;8.61;72.47
84382;BME280;74572;51.834;5.820;2024-02-28T11:42:52;102243.22;;;8.64;72.79
84382;BME280;74572;51.834;5.820;2024-02-28T11:45:17;102243.97;;;8.73;73.14
84382;BME280;74572;51.834;5.820;2024-02-28T11:47:44;102226.06;;;8.72;73.01
84382;BME280;74572;51.834;5.820;2024-02-28T11:50:10;102225.06;;;8.80;72.54
84382;BME280;74572;51.834;5.820;2024-02-28T11:52:36;102218.84;;;8.96;72.26
84382;BME280;74572;51.834;5.820;2024-02-28T11:55:03;102215.00;;;9.12;72.27
84382;BME280;74572;51.834;5.820;2024-02-28T11:57:28;102213.25;;;9.11;71.66
84382;BME280;74572;51.834;5.820;2024-02-28T11:59:56;102205.84;;;9.24;72.05
84382;BME280;74572;51.834;5.820;2024-02-28T12:02:22;102199.44;;;9.49;71.18
84382;BME280;74572;51.834;5.820;2024-02-28T12:04:50;102204.88;;;9.86;70.90
84382;BME280;74572;51.834;5.820;2024-02-28T12:07:16;102203.53;;;10.01;70.83
84382;BME280;74572;51.834;5.820;2024-02-28T12:09:41;102198.22;;;9.98;70.96
84382;BME280;74572;51.834;5.820;2024-02-28T12:12:11;102202.91;;;9.72;70.75
84382;BME280;74572;51.834;5.820;2024-02-28T12:14:37;102199.69;;;9.52;70.29
84382;BME280;74572;51.834;5.820;2024-02-28T12:17:08;102202.97;;;9.51;70.54
84382;BME280;74572;51.834;5.820;2024-02-28T12:19:34;102195.09;;;9.58;70.33
84382;BME280;74572;51.834;5.820;2024-02-28T12:22:00;102186.53;;;9.68;70.49
84382;BME280;74572;51.834;5.820;2024-02-28T12:24:26;102184.75;;;9.67;70.24
84382;BME280;74572;51.834;5.820;2024-02-28T12:26:52;102181.69;;;9.71;70.49
84382;BME280;74572;51.834;5.820;2024-02-28T12:29:17;102172.06;;;9.67;70.23
84382;BME280;74572;51.834;5.820;2024-02-28T12:31:43;102175.72;;;9.70;70.03
84382;BME280;74572;51.834;5.820;2024-02-28T12:34:09;102171.41;;;9.69;70.13
84382;BME280;74572;51.834;5.820;2024-02-28T12:36:34;102169.25;;;9.64;70.24
84382;BME280;74572;51.834;5.820;2024-02-28T12:38:59;102174.19;;;9.73;70.03
84382;BME280;74572;51.834;5.820;2024-02-28T12:41:26;102159.13;;;9.86;69.66
84382;BME280;74572;51.834;5.820;2024-02-28T12:43:52;102169.25;;;9.96;69.55
84382;BME280;74572;51.834;5.820;2024-02-28T12:46:17;102180.59;;;10.11;69.22
84382;BME280;74572;51.834;5.820;2024-02-28T12:48:43;102162.78;;;10.11;69.68
84382;BME280;74572;51.834;5.820;2024-02-28T12:51:13;102166.06;;;10.20;69.59
84382;BME280;74572;51.834;5.820;2024-02-28T12:53:45;102162.50;;;10.18;69.17